Kiamichi River (Oklahoma), Clayton (07335790)

StateOklahomaCurrentLow (1790 cfs)
RiverKiamichi RiverFlood - The river is flooding. Obstacles can be treacherous or deadly. The river should be avoided at this stage for casual trips and definitely for the inexperienced. Trips should be attempted only with protective gear and equipment.Flood(none)
Updated2019-10-14 2:00 (1 hour ago)High - The river is high and potentially dangerous, especially for the young and / or inexperienced. Normal stream obstacles are sometimes difficult to navigate. Extended distances can be attempted, but canoe travel may not be advisable.High(none)
Discharge1790 cfs (median: 10 cfs)Good - Conditions are ideal for a canoe or kayak. Boats typically will drag on fewer than one-quarter of riffles, if at all, and portages are unnecessary or rare. Normal float lengths can be attempted without a problem.Good(none)
Height6.36 feetLow - River is low but can still be floated. Some riffles are okay but most come with significant dragging and might need a portage. Float lengths should be reduced to accommodate low flow, dragging, and portages.Low30
TrendFalling (falling over 24 hours)Poor - River is too low to float comfortably. Most or all riffles will drag or must be portaged and some obstacles (such as slick shelf rock) cause undue problems. Avoid the river at this stage for casual paddling trips.Poor(none)
USGSExternal icon USGS Site for Clayton (07335790)LocationExternal icon Google Maps

Trending Data

Plot Image
ObservationHeightDischargeMaximum
Discharge
Minimum
Discharge
Mean
Discharge
P05P10P20P25P50
(Median)
P75P80P90P95
2019-10-14 02:00 6.36 1790 5990 (2015) 0 (1984) 524 0 0 1 2 10 240 666 2380 3390
2019-10-14 01:00 6.38 1810 5990 (2015) 0 (1984) 524 0 0 1 2 10 240 666 2380 3390
2019-10-14 00:00 6.39 1820 5990 (2015) 0 (1984) 524 0 0 1 2 10 240 666 2380 3390
2019-10-13 23:00 6.41 1850 4700 (2002) 0 (1984) 524 0 0 1 2 12 79 521 2750 4090
2019-10-13 22:00 6.42 1860 4700 (2002) 0 (1984) 524 0 0 1 2 12 79 521 2750 4090
2019-10-13 21:00 6.44 1880 4700 (2002) 0 (1984) 524 0 0 1 2 12 79 521 2750 4090
2019-10-13 20:00 6.46 1910 4700 (2002) 0 (1984) 524 0 0 1 2 12 79 521 2750 4090
2019-10-13 19:00 6.48 1930 4700 (2002) 0 (1984) 524 0 0 1 2 12 79 521 2750 4090
2019-10-13 18:00 6.50 1960 4700 (2002) 0 (1984) 524 0 0 1 2 12 79 521 2750 4090
2019-10-13 17:00 6.52 1980 4700 (2002) 0 (1984) 524 0 0 1 2 12 79 521 2750 4090
2019-10-13 16:00 6.54 2010 4700 (2002) 0 (1984) 524 0 0 1 2 12 79 521 2750 4090
2019-10-13 15:00 6.56 2030 4700 (2002) 0 (1984) 524 0 0 1 2 12 79 521 2750 4090
2019-10-13 14:00 6.59 2070 4700 (2002) 0 (1984) 524 0 0 1 2 12 79 521 2750 4090
2019-10-13 13:00 6.61 2100 4700 (2002) 0 (1984) 524 0 0 1 2 12 79 521 2750 4090
2019-10-13 12:00 6.63 2120 4700 (2002) 0 (1984) 524 0 0 1 2 12 79 521 2750 4090
2019-10-13 11:00 6.66 2160 4700 (2002) 0 (1984) 524 0 0 1 2 12 79 521 2750 4090
2019-10-13 10:00 6.69 2200 4700 (2002) 0 (1984) 524 0 0 1 2 12 79 521 2750 4090
2019-10-13 09:00 6.73 2250 4700 (2002) 0 (1984) 524 0 0 1 2 12 79 521 2750 4090
2019-10-13 08:00 6.75 2270 4700 (2002) 0 (1984) 524 0 0 1 2 12 79 521 2750 4090
2019-10-13 07:00 6.79 2320 4700 (2002) 0 (1984) 524 0 0 1 2 12 79 521 2750 4090
2019-10-13 06:00 6.82 2360 4700 (2002) 0 (1984) 524 0 0 1 2 12 79 521 2750 4090
2019-10-13 05:00 6.86 2410 4700 (2002) 0 (1984) 524 0 0 1 2 12 79 521 2750 4090
2019-10-13 04:00 6.89 2450 4700 (2002) 0 (1984) 524 0 0 1 2 12 79 521 2750 4090
2019-10-13 03:00 6.93 2500 4700 (2002) 0 (1984) 524 0 0 1 2 12 79 521 2750 4090
2019-10-13 02:00 6.96 2540 4700 (2002) 0 (1984) 524 0 0 1 2 12 79 521 2750 4090
2019-10-13 01:00 7.03 2630 4700 (2002) 0 (1984) 524 0 0 1 2 12 79 521 2750 4090
2019-10-13 00:00 7.07 2690 4700 (2002) 0 (1984) 524 0 0 1 2 12 79 521 2750 4090
2019-10-12 23:00 7.12 2750 3710 (2002) 0 (1984) 389 0 0 1 2 13 58 189 2300 3320
2019-10-12 22:00 7.18 2830 3710 (2002) 0 (1984) 389 0 0 1 2 13 58 189 2300 3320
2019-10-12 21:00 7.23 2900 3710 (2002) 0 (1984) 389 0 0 1 2 13 58 189 2300 3320
2019-10-12 20:00 7.30 2990 3710 (2002) 0 (1984) 389 0 0 1 2 13 58 189 2300 3320
2019-10-12 19:00 7.37 3090 3710 (2002) 0 (1984) 389 0 0 1 2 13 58 189 2300 3320
2019-10-12 18:00 7.45 3200 3710 (2002) 0 (1984) 389 0 0 1 2 13 58 189 2300 3320
2019-10-12 17:00 7.52 3290 3710 (2002) 0 (1984) 389 0 0 1 2 13 58 189 2300 3320
2019-10-12 16:00 7.62 3440 3710 (2002) 0 (1984) 389 0 0 1 2 13 58 189 2300 3320
2019-10-12 15:00 7.71 3570 3710 (2002) 0 (1984) 389 0 0 1 2 13 58 189 2300 3320
2019-10-12 14:00 7.82 3730 3710 (2002) 0 (1984) 389 0 0 1 2 13 58 189 2300 3320
2019-10-12 13:00 7.95 3930 3710 (2002) 0 (1984) 389 0 0 1 2 13 58 189 2300 3320
2019-10-12 12:00 8.08 4110 3710 (2002) 0 (1984) 389 0 0 1 2 13 58 189 2300 3320
2019-10-12 11:00 8.23 4330 3710 (2002) 0 (1984) 389 0 0 1 2 13 58 189 2300 3320
2019-10-12 10:00 8.38 4560 3710 (2002) 0 (1984) 389 0 0 1 2 13 58 189 2300 3320
2019-10-12 09:00 8.58 4860 3710 (2002) 0 (1984) 389 0 0 1 2 13 58 189 2300 3320
2019-10-12 08:00 8.78 5180 3710 (2002) 0 (1984) 389 0 0 1 2 13 58 189 2300 3320
2019-10-12 07:00 8.98 5470 3710 (2002) 0 (1984) 389 0 0 1 2 13 58 189 2300 3320
2019-10-12 06:00 9.21 5790 3710 (2002) 0 (1984) 389 0 0 1 2 13 58 189 2300 3320
2019-10-12 05:00 9.40 6070 3710 (2002) 0 (1984) 389 0 0 1 2 13 58 189 2300 3320
2019-10-12 04:00 9.64 6420 3710 (2002) 0 (1984) 389 0 0 1 2 13 58 189 2300 3320
2019-10-12 03:00 9.87 6770 3710 (2002) 0 (1984) 389 0 0 1 2 13 58 189 2300 3320
2019-10-12 02:00 10.09 7110 3710 (2002) 0 (1984) 389 0 0 1 2 13 58 189 2300 3320
2019-10-12 01:00 10.23 7320 3710 (2002) 0 (1984) 389 0 0 1 2 13 58 189 2300 3320
2019-10-12 00:00 10.40 7580 3710 (2002) 0 (1984) 389 0 0 1 2 13 58 189 2300 3320
2019-10-11 23:00 10.48 7700 4070 (2010) 0 (1984) 453 0 0 1 3 14 64 300 2250 4030
2019-10-11 22:00 10.57 7830 4070 (2010) 0 (1984) 453 0 0 1 3 14 64 300 2250 4030
2019-10-11 21:00 10.63 7930 4070 (2010) 0 (1984) 453 0 0 1 3 14 64 300 2250 4030
2019-10-11 20:00 10.72 8060 4070 (2010) 0 (1984) 453 0 0 1 3 14 64 300 2250 4030
2019-10-11 19:00 10.77 8140 4070 (2010) 0 (1984) 453 0 0 1 3 14 64 300 2250 4030
2019-10-11 18:00 10.82 8220 4070 (2010) 0 (1984) 453 0 0 1 3 14 64 300 2250 4030
2019-10-11 17:00 10.89 8320 4070 (2010) 0 (1984) 453 0 0 1 3 14 64 300 2250 4030
2019-10-11 16:00 10.93 8390 4070 (2010) 0 (1984) 453 0 0 1 3 14 64 300 2250 4030
2019-10-11 15:00 10.93 8390 4070 (2010) 0 (1984) 453 0 0 1 3 14 64 300 2250 4030
2019-10-11 14:00 10.86 8280 4070 (2010) 0 (1984) 453 0 0 1 3 14 64 300 2250 4030
2019-10-11 13:00 10.73 8080 4070 (2010) 0 (1984) 453 0 0 1 3 14 64 300 2250 4030
2019-10-11 12:00 10.47 7680 4070 (2010) 0 (1984) 453 0 0 1 3 14 64 300 2250 4030
2019-10-11 11:00 10.16 7220 4070 (2010) 0 (1984) 453 0 0 1 3 14 64 300 2250 4030
2019-10-11 10:00 9.91 6830 4070 (2010) 0 (1984) 453 0 0 1 3 14 64 300 2250 4030
2019-10-11 09:00 9.64 6420 4070 (2010) 0 (1984) 453 0 0 1 3 14 64 300 2250 4030
2019-10-11 08:00 9.41 6080 4070 (2010) 0 (1984) 453 0 0 1 3 14 64 300 2250 4030
2019-10-11 07:00 9.14 5690 4070 (2010) 0 (1984) 453 0 0 1 3 14 64 300 2250 4030
2019-10-11 06:00 8.83 5260 4070 (2010) 0 (1984) 453 0 0 1 3 14 64 300 2250 4030
2019-10-11 05:00 8.50 4740 4070 (2010) 0 (1984) 453 0 0 1 3 14 64 300 2250 4030
2019-10-11 04:00 8.07 4100 4070 (2010) 0 (1984) 453 0 0 1 3 14 64 300 2250 4030
2019-10-11 03:00 7.45 3200 4070 (2010) 0 (1984) 453 0 0 1 3 14 64 300 2250 4030
2019-10-11 02:00 6.53 2000 4070 (2010) 0 (1984) 453 0 0 1 3 14 64 300 2250 4030
2019-10-11 01:00 5.94 1300 4070 (2010) 0 (1984) 453 0 0 1 3 14 64 300 2250 4030
2019-10-11 00:00 5.56 878 4070 (2010) 0 (1984) 453 0 0 1 3 14 64 300 2250 4030
2019-10-10 23:00 4.95 407 12100 (2010) 0 (1984) 607 0 0 1 3 13 64 83 1210 5380
2019-10-10 22:00 4.47 189 12100 (2010) 0 (1984) 607 0 0 1 3 13 64 83 1210 5380
2019-10-10 21:00 4.38 161 12100 (2010) 0 (1984) 607 0 0 1 3 13 64 83 1210 5380
2019-10-10 20:00 4.35 152 12100 (2010) 0 (1984) 607 0 0 1 3 13 64 83 1210 5380
2019-10-10 19:00 4.35 152 12100 (2010) 0 (1984) 607 0 0 1 3 13 64 83 1210 5380
2019-10-10 18:00 4.24 122 12100 (2010) 0 (1984) 607 0 0 1 3 13 64 83 1210 5380
2019-10-10 17:00 4.25 125 12100 (2010) 0 (1984) 607 0 0 1 3 13 64 83 1210 5380
2019-10-10 16:00 4.25 125 12100 (2010) 0 (1984) 607 0 0 1 3 13 64 83 1210 5380
2019-10-10 15:00 4.26 127 12100 (2010) 0 (1984) 607 0 0 1 3 13 64 83 1210 5380
2019-10-10 14:00 4.27 130 12100 (2010) 0 (1984) 607 0 0 1 3 13 64 83 1210 5380
2019-10-10 13:00 4.27 194 12100 (2010) 0 (1984) 607 0 0 1 3 13 64 83 1210 5380
2019-10-10 12:00 4.29 201 12100 (2010) 0 (1984) 607 0 0 1 3 13 64 83 1210 5380
2019-10-10 11:00 4.29 201 12100 (2010) 0 (1984) 607 0 0 1 3 13 64 83 1210 5380
2019-10-10 10:00 4.31 208 12100 (2010) 0 (1984) 607 0 0 1 3 13 64 83 1210 5380
2019-10-10 09:00 4.31 208 12100 (2010) 0 (1984) 607 0 0 1 3 13 64 83 1210 5380
2019-10-10 08:00 4.33 215 12100 (2010) 0 (1984) 607 0 0 1 3 13 64 83 1210 5380
2019-10-10 07:00 4.34 218 12100 (2010) 0 (1984) 607 0 0 1 3 13 64 83 1210 5380
2019-10-10 06:00 4.35 222 12100 (2010) 0 (1984) 607 0 0 1 3 13 64 83 1210 5380
2019-10-10 05:00 4.36 226 12100 (2010) 0 (1984) 607 0 0 1 3 13 64 83 1210 5380
2019-10-10 04:00 4.36 226 12100 (2010) 0 (1984) 607 0 0 1 3 13 64 83 1210 5380
2019-10-10 03:00 4.38 233 12100 (2010) 0 (1984) 607 0 0 1 3 13 64 83 1210 5380
2019-10-10 02:00 4.39 237 12100 (2010) 0 (1984) 607 0 0 1 3 13 64 83 1210 5380
2019-10-10 01:00 4.40 241 12100 (2010) 0 (1984) 607 0 0 1 3 13 64 83 1210 5380
2019-10-10 00:00 4.42 249 12100 (2010) 0 (1984) 607 0 0 1 3 13 64 83 1210 5380
2019-10-09 23:00 4.43 253 9320 (2010) 0 (1984) 605 0 0 1 3 11 45 83 1650 6800
2019-10-09 22:00 4.44 257 9320 (2010) 0 (1984) 605 0 0 1 3 11 45 83 1650 6800
2019-10-09 21:00 4.45 261 9320 (2010) 0 (1984) 605 0 0 1 3 11 45 83 1650 6800
2019-10-09 20:00 4.47 269 9320 (2010) 0 (1984) 605 0 0 1 3 11 45 83 1650 6800
2019-10-09 19:00 4.48 274 9320 (2010) 0 (1984) 605 0 0 1 3 11 45 83 1650 6800
2019-10-09 18:00 4.49 278 9320 (2010) 0 (1984) 605 0 0 1 3 11 45 83 1650 6800
2019-10-09 17:00 4.50 283 9320 (2010) 0 (1984) 605 0 0 1 3 11 45 83 1650 6800
2019-10-09 16:00 4.51 287 9320 (2010) 0 (1984) 605 0 0 1 3 11 45 83 1650 6800
2019-10-09 15:00 4.51 287 9320 (2010) 0 (1984) 605 0 0 1 3 11 45 83 1650 6800
2019-10-09 14:00 4.52 292 9320 (2010) 0 (1984) 605 0 0 1 3 11 45 83 1650 6800
2019-10-09 13:00 4.53 296 9320 (2010) 0 (1984) 605 0 0 1 3 11 45 83 1650 6800
2019-10-09 12:00 4.54 301 9320 (2010) 0 (1984) 605 0 0 1 3 11 45 83 1650 6800
2019-10-09 11:00 4.54 301 9320 (2010) 0 (1984) 605 0 0 1 3 11 45 83 1650 6800
2019-10-09 10:00 4.55 305 9320 (2010) 0 (1984) 605 0 0 1 3 11 45 83 1650 6800
2019-10-09 09:00 4.56 310 9320 (2010) 0 (1984) 605 0 0 1 3 11 45 83 1650 6800
2019-10-09 08:00 4.56 310 9320 (2010) 0 (1984) 605 0 0 1 3 11 45 83 1650 6800
2019-10-09 07:00 4.56 310 9320 (2010) 0 (1984) 605 0 0 1 3 11 45 83 1650 6800
2019-10-09 06:00 4.56 310 9320 (2010) 0 (1984) 605 0 0 1 3 11 45 83 1650 6800
2019-10-09 05:00 4.57 315 9320 (2010) 0 (1984) 605 0 0 1 3 11 45 83 1650 6800
2019-10-09 04:00 4.57 315 9320 (2010) 0 (1984) 605 0 0 1 3 11 45 83 1650 6800
2019-10-09 03:00 4.58 320 9320 (2010) 0 (1984) 605 0 0 1 3 11 45 83 1650 6800
2019-10-09 02:00 4.59 325 9320 (2010) 0 (1984) 605 0 0 1 3 11 45 83 1650 6800
2019-10-09 01:00 4.59 325 9320 (2010) 0 (1984) 605 0 0 1 3 11 45 83 1650 6800
2019-10-09 00:00 4.60 329 9320 (2010) 0 (1984) 605 0 0 1 3 11 45 83 1650 6800
2019-10-08 23:00 4.61 334 6810 (1999) 0 (1984) 379 0 0 1 2 8 24 56 1530 3880
2019-10-08 22:00 4.61 334 6810 (1999) 0 (1984) 379 0 0 1 2 8 24 56 1530 3880
2019-10-08 21:00 4.62 339 6810 (1999) 0 (1984) 379 0 0 1 2 8 24 56 1530 3880
2019-10-08 20:00 4.62 339 6810 (1999) 0 (1984) 379 0 0 1 2 8 24 56 1530 3880
2019-10-08 19:00 4.63 344 6810 (1999) 0 (1984) 379 0 0 1 2 8 24 56 1530 3880
2019-10-08 18:00 4.64 350 6810 (1999) 0 (1984) 379 0 0 1 2 8 24 56 1530 3880
2019-10-08 17:00 4.65 355 6810 (1999) 0 (1984) 379 0 0 1 2 8 24 56 1530 3880
2019-10-08 16:00 4.65 355 6810 (1999) 0 (1984) 379 0 0 1 2 8 24 56 1530 3880
2019-10-08 15:00 4.66 360 6810 (1999) 0 (1984) 379 0 0 1 2 8 24 56 1530 3880
2019-10-08 14:00 4.67 365 6810 (1999) 0 (1984) 379 0 0 1 2 8 24 56 1530 3880
2019-10-08 13:00 4.68 371 6810 (1999) 0 (1984) 379 0 0 1 2 8 24 56 1530 3880
2019-10-08 12:00 4.70 381 6810 (1999) 0 (1984) 379 0 0 1 2 8 24 56 1530 3880
2019-10-08 11:00 4.71 387 6810 (1999) 0 (1984) 379 0 0 1 2 8 24 56 1530 3880
2019-10-08 10:00 4.72 392 6810 (1999) 0 (1984) 379 0 0 1 2 8 24 56 1530 3880
2019-10-08 09:00 4.73 398 6810 (1999) 0 (1984) 379 0 0 1 2 8 24 56 1530 3880
2019-10-08 08:00 4.74 404 6810 (1999) 0 (1984) 379 0 0 1 2 8 24 56 1530 3880
2019-10-08 07:00 4.75 409 6810 (1999) 0 (1984) 379 0 0 1 2 8 24 56 1530 3880
2019-10-08 06:00 4.76 415 6810 (1999) 0 (1984) 379 0 0 1 2 8 24 56 1530 3880
2019-10-08 05:00 4.76 415 6810 (1999) 0 (1984) 379 0 0 1 2 8 24 56 1530 3880
2019-10-08 04:00 4.77 421 6810 (1999) 0 (1984) 379 0 0 1 2 8 24 56 1530 3880
2019-10-08 03:00 4.77 421 6810 (1999) 0 (1984) 379 0 0 1 2 8 24 56 1530 3880
2019-10-08 02:00 4.78 427 6810 (1999) 0 (1984) 379 0 0 1 2 8 24 56 1530 3880
2019-10-08 01:00 4.78 427 6810 (1999) 0 (1984) 379 0 0 1 2 8 24 56 1530 3880
2019-10-08 00:00 4.79 433 6810 (1999) 0 (1984) 379 0 0 1 2 8 24 56 1530 3880
2019-10-07 23:00 4.80 439 13800 (1999) 0 (1984) 740 0 0 1 2 8 28 54 994 9040
2019-10-07 22:00 4.81 445 13800 (1999) 0 (1984) 740 0 0 1 2 8 28 54 994 9040
2019-10-07 21:00 4.83 457 13800 (1999) 0 (1984) 740 0 0 1 2 8 28 54 994 9040
2019-10-07 20:00 4.85 469 13800 (1999) 0 (1984) 740 0 0 1 2 8 28 54 994 9040
2019-10-07 19:00 4.88 488 13800 (1999) 0 (1984) 740 0 0 1 2 8 28 54 994 9040
2019-10-07 18:00 4.91 508 13800 (1999) 0 (1984) 740 0 0 1 2 8 28 54 994 9040
2019-10-07 17:00 4.94 528 13800 (1999) 0 (1984) 740 0 0 1 2 8 28 54 994 9040
2019-10-07 16:00 5.00 570 13800 (1999) 0 (1984) 740 0 0 1 2 8 28 54 994 9040
2019-10-07 15:00 5.05 607 13800 (1999) 0 (1984) 740 0 0 1 2 8 28 54 994 9040
2019-10-07 14:00 5.09 637 13800 (1999) 0 (1984) 740 0 0 1 2 8 28 54 994 9040
2019-10-07 13:00 5.16 693 13800 (1999) 0 (1984) 740 0 0 1 2 8 28 54 994 9040
2019-10-07 12:00 5.21 735 13800 (1999) 0 (1984) 740 0 0 1 2 8 28 54 994 9040
2019-10-07 11:00 5.29 806 13800 (1999) 0 (1984) 740 0 0 1 2 8 28 54 994 9040
2019-10-07 10:00 5.37 881 13800 (1999) 0 (1984) 740 0 0 1 2 8 28 54 994 9040
2019-10-07 09:00 5.45 963 13800 (1999) 0 (1984) 740 0 0 1 2 8 28 54 994 9040
2019-10-07 08:00 5.54 1060 13800 (1999) 0 (1984) 740 0 0 1 2 8 28 54 994 9040
2019-10-07 07:00 5.63 1160 13800 (1999) 0 (1984) 740 0 0 1 2 8 28 54 994 9040
2019-10-07 06:00 5.65 1180 13800 (1999) 0 (1984) 740 0 0 1 2 8 28 54 994 9040
2019-10-07 05:00 5.54 1060 13800 (1999) 0 (1984) 740 0 0 1 2 8 28 54 994 9040
2019-10-07 04:00 4.95 535 13800 (1999) 0 (1984) 740 0 0 1 2 8 28 54 994 9040
2019-10-07 03:00 3.89 92 13800 (1999) 0 (1984) 740 0 0 1 2 8 28 54 994 9040
2019-10-07 02:00 3.74 65 13800 (1999) 0 (1984) 740 0 0 1 2 8 28 54 994 9040
2019-10-07 01:00 3.73 63 13800 (1999) 0 (1984) 740 0 0 1 2 8 28 54 994 9040
2019-10-07 00:00 3.72 62 13800 (1999) 0 (1984) 740 0 0 1 2 8 28 54 994 9040

A total of 171 rows are displayed for years 1982 through 2018.

Trips for Kiamichi River (Oklahoma), Clayton (07335790)

DateStartEndDistanceConditionDischargeHeightFishingDetails
Click for details2012-05-19 Tuskahoma Bridge US 271 Total trip distance: 6.7 miles6.7 Low 26 3.44 Great KSB
GSF
LSF
CCF
KSB, GSF, LSF, CCF
Cooper, Brook
Cooper, Matt
Fillmore, Brian
Fillmore, Rebecca
Cooper, Brook; Cooper, Matt; Fillmore, Brian; Fillmore, Rebecca
No notes for this trip<i>No notes for this trip</i> USGS Gauge Data:
Clayton (07335790)
Discharge: 26
Height: 3.44
<b>USGS Gauge Data:</b></br />Clayton (07335790)<br />Discharge: 26<br />Height: 3.44
Source: FillmoreSource: Fillmore
Click for details2008-07-12 Tuskahoma Bridge US 271 Total trip distance: 6.7 miles6.7 Low 24 3.40 Fair KSB
GSF
LSF
CCF
KSB, GSF, LSF, CCF
East, Mitch
Fillmore, Brian
Fillmore, Rebecca
Rose, Nick
East, Mitch; Fillmore, Brian; Fillmore, Rebecca; Rose, Nick
No notes for this trip<i>No notes for this trip</i> USGS Gauge Data:
Clayton (07335790)
Discharge: 24
Height: 3.40
<b>USGS Gauge Data:</b></br />Clayton (07335790)<br />Discharge: 24<br />Height: 3.40
Source: FillmoreSource: Fillmore

A total of 2 rows are displayed.

Trip Summary for Kiamichi River (Oklahoma), Clayton (07335790)

Miles13.4
Trips2
People6
Dates2
Years2
Months2
Rows2
Sources1

Condition Descriptions

Fishing Conditions

Fish Species

Notes

Classic Trip List

The classic River Trips application is still available for use. It is updated with the new system using a data retrofit. It is no longer maintained. The original River Trips application is no longer updated (as of 1 Dec 2016) but can be checked for errors or for the condition of the data before it was converted to the new system.